WZZ4295 EPKK-LIMC
Flight info
| Callsign | WZZ4295 |
|---|---|
| Flight time | 1h 32m |
| Altitude | 36000 |
| Route | BABKO DCT VADEX L856 KOPAT DCT MAREG DCT DETSA DCT GUNGO DCT RENTA DCT ATPED DCT LUSIL DCT EVRIP |
| Aircraft | A320/M-SDE1E2E3FGIJ1J4RWXY/LB1 |
Departure
| Time | 2026-05-05 08:56 |
|---|---|
| Airport | Kraków John Paul II International Airport (EPKK) |
Arrival
| Time | 2026-05-05 10:28 |
|---|---|
| Airport | Milan Malpensa International Airport (LIMC) |
| Time | Latitude | Longitude | Altitude | Speed | Heading |
|---|---|---|---|---|---|
| 2026-05-05 08:36 | 50.07682 | 19.80079 | 800 ft | 0 kts | 348° |
| 2026-05-05 08:51 | 50.07685 | 19.80078 | 800 ft | 1 kts | 348° |
| 2026-05-05 08:51 | 50.07701 | 19.80073 | 800 ft | 3 kts | 348° |
| 2026-05-05 08:52 | 50.07729 | 19.80077 | 800 ft | 5 kts | 28° |
| 2026-05-05 08:52 | 50.07748 | 19.80130 | 800 ft | 7 kts | 73° |
| 2026-05-05 08:52 | 50.07759 | 19.80211 | 800 ft | 9 kts | 78° |
| 2026-05-05 08:52 | 50.07768 | 19.80279 | 800 ft | 0 kts | 78° |
| 2026-05-05 08:53 | 50.07769 | 19.80289 | 800 ft | 2 kts | 78° |
| 2026-05-05 08:53 | 50.07776 | 19.80320 | 800 ft | 4 kts | 62° |
| 2026-05-05 08:53 | 50.07804 | 19.80344 | 800 ft | 6 kts | 13° |
| 2026-05-05 08:53 | 50.07849 | 19.80336 | 800 ft | 7 kts | 344° |
| 2026-05-05 08:54 | 50.07906 | 19.80316 | 800 ft | 10 kts | 352° |
| 2026-05-05 08:54 | 50.07980 | 19.80292 | 799 ft | 12 kts | 346° |
| 2026-05-05 08:54 | 50.08017 | 19.80231 | 800 ft | 6 kts | 259° |
| 2026-05-05 08:54 | 50.08013 | 19.80209 | 800 ft | 0 kts | 254° |
| 2026-05-05 08:55 | 50.07999 | 19.80116 | 801 ft | 35 kts | 259° |
| 2026-05-05 08:55 | 50.07897 | 19.79374 | 800 ft | 103 kts | 257° |
| 2026-05-05 08:55 | 50.07709 | 19.78013 | 801 ft | 152 kts | 258° |
| 2026-05-05 08:56 | 50.07450 | 19.76328 | 1254 ft | 162 kts | 258° |
| 2026-05-05 08:56 | 50.07194 | 19.74565 | 1814 ft | 169 kts | 255° |
| 2026-05-05 08:56 | 50.06958 | 19.72764 | 2376 ft | 176 kts | 253° |
| 2026-05-05 08:56 | 50.06674 | 19.70834 | 2823 ft | 190 kts | 252° |
| 2026-05-05 08:57 | 50.06345 | 19.68775 | 3228 ft | 205 kts | 253° |
| 2026-05-05 08:57 | 50.05998 | 19.66487 | 3556 ft | 229 kts | 247° |
| 2026-05-05 08:57 | 50.05055 | 19.64534 | 4273 ft | 232 kts | 210° |
| 2026-05-05 08:57 | 50.03454 | 19.63865 | 4878 ft | 251 kts | 179° |
| 2026-05-05 08:58 | 50.01704 | 19.64268 | 5688 ft | 258 kts | 169° |
| 2026-05-05 08:58 | 49.99980 | 19.65024 | 6669 ft | 258 kts | 167° |
| 2026-05-05 08:58 | 49.98250 | 19.65845 | 7525 ft | 263 kts | 167° |
| 2026-05-05 08:58 | 49.96471 | 19.66642 | 8336 ft | 269 kts | 168° |
| 2026-05-05 08:59 | 49.94645 | 19.67392 | 9158 ft | 274 kts | 169° |
| 2026-05-05 08:59 | 49.92775 | 19.68103 | 9944 ft | 280 kts | 170° |
| 2026-05-05 08:59 | 49.90815 | 19.68797 | 10333 ft | 299 kts | 172° |
| 2026-05-05 08:59 | 49.88684 | 19.69024 | 10641 ft | 314 kts | 186° |
| 2026-05-05 09:00 | 49.86533 | 19.68381 | 11333 ft | 315 kts | 200° |
| 2026-05-05 09:00 | 49.84561 | 19.67000 | 12094 ft | 316 kts | 210° |
| 2026-05-05 09:00 | 49.82615 | 19.65324 | 12909 ft | 317 kts | 210° |
| 2026-05-05 09:00 | 49.80701 | 19.63680 | 13601 ft | 322 kts | 210° |
| 2026-05-05 09:01 | 49.78730 | 19.61992 | 14245 ft | 326 kts | 209° |
| 2026-05-05 09:01 | 49.76729 | 19.60277 | 14825 ft | 331 kts | 210° |
| 2026-05-05 09:01 | 49.74716 | 19.58547 | 15541 ft | 331 kts | 210° |
| 2026-05-05 09:01 | 49.72693 | 19.56807 | 16190 ft | 334 kts | 210° |
| 2026-05-05 09:02 | 49.70656 | 19.55061 | 16824 ft | 336 kts | 210° |
| 2026-05-05 09:02 | 49.68598 | 19.53298 | 17433 ft | 340 kts | 210° |
| 2026-05-05 09:02 | 49.66518 | 19.51520 | 18043 ft | 344 kts | 210° |
| 2026-05-05 09:02 | 49.64404 | 19.49720 | 18585 ft | 347 kts | 210° |
| 2026-05-05 09:03 | 49.62291 | 19.47892 | 19152 ft | 349 kts | 213° |
| 2026-05-05 09:03 | 49.60373 | 19.45614 | 19814 ft | 349 kts | 223° |
| 2026-05-05 09:03 | 49.58678 | 19.42892 | 20285 ft | 354 kts | 226° |
| 2026-05-05 09:03 | 49.56984 | 19.40104 | 20754 ft | 359 kts | 227° |
| 2026-05-05 09:04 | 49.55262 | 19.37278 | 21275 ft | 362 kts | 226° |
| 2026-05-05 09:04 | 49.53530 | 19.34447 | 21797 ft | 363 kts | 226° |
| 2026-05-05 09:04 | 49.51790 | 19.31612 | 22279 ft | 367 kts | 226° |
| 2026-05-05 09:04 | 49.50029 | 19.28742 | 22708 ft | 372 kts | 226° |
| 2026-05-05 09:05 | 49.48240 | 19.25829 | 23160 ft | 375 kts | 226° |
| 2026-05-05 09:05 | 49.46439 | 19.22905 | 23666 ft | 377 kts | 226° |
| 2026-05-05 09:05 | 49.44631 | 19.19973 | 24116 ft | 379 kts | 226° |
| 2026-05-05 09:05 | 49.42810 | 19.17028 | 24490 ft | 383 kts | 226° |
| 2026-05-05 09:06 | 49.40959 | 19.14039 | 24846 ft | 386 kts | 227° |
| 2026-05-05 09:06 | 49.39108 | 19.11048 | 25320 ft | 386 kts | 227° |
| 2026-05-05 09:06 | 49.37255 | 19.08057 | 25796 ft | 388 kts | 227° |
| 2026-05-05 09:06 | 49.35413 | 19.05084 | 26136 ft | 392 kts | 227° |
| 2026-05-05 09:07 | 49.33529 | 19.02046 | 26512 ft | 394 kts | 227° |
| 2026-05-05 09:07 | 49.31628 | 18.98990 | 26926 ft | 396 kts | 227° |
| 2026-05-05 09:07 | 49.29722 | 18.95929 | 27336 ft | 399 kts | 226° |
| 2026-05-05 09:07 | 49.27797 | 18.92841 | 27616 ft | 404 kts | 226° |
| 2026-05-05 09:08 | 49.25849 | 18.89718 | 27970 ft | 407 kts | 226° |
| 2026-05-05 09:08 | 49.23893 | 18.86582 | 28391 ft | 408 kts | 226° |
| 2026-05-05 09:08 | 49.21928 | 18.83433 | 28790 ft | 410 kts | 226° |
| 2026-05-05 09:08 | 49.19947 | 18.80265 | 29107 ft | 415 kts | 226° |
| 2026-05-05 09:09 | 49.17948 | 18.77077 | 29518 ft | 416 kts | 226° |
| 2026-05-05 09:09 | 49.15944 | 18.73884 | 29975 ft | 417 kts | 226° |
| 2026-05-05 09:09 | 49.13927 | 18.70674 | 30263 ft | 420 kts | 226° |
| 2026-05-05 09:09 | 49.11895 | 18.67441 | 30546 ft | 423 kts | 226° |
| 2026-05-05 09:10 | 49.09928 | 18.64102 | 30912 ft | 423 kts | 231° |
| 2026-05-05 09:10 | 49.08087 | 18.60601 | 31337 ft | 423 kts | 231° |
| 2026-05-05 09:10 | 49.06252 | 18.57120 | 31717 ft | 424 kts | 231° |
| 2026-05-05 09:10 | 49.04407 | 18.53628 | 32218 ft | 421 kts | 231° |
| 2026-05-05 09:11 | 49.02575 | 18.50165 | 32771 ft | 418 kts | 231° |
| 2026-05-05 09:11 | 49.00753 | 18.46725 | 33251 ft | 417 kts | 231° |
| 2026-05-05 09:11 | 48.98931 | 18.43290 | 33706 ft | 416 kts | 231° |
| 2026-05-05 09:11 | 48.97116 | 18.39872 | 34190 ft | 413 kts | 231° |
| 2026-05-05 09:12 | 48.95310 | 18.36479 | 34604 ft | 412 kts | 231° |
| 2026-05-05 09:12 | 48.93503 | 18.33088 | 34908 ft | 413 kts | 231° |
| 2026-05-05 09:12 | 48.91693 | 18.29700 | 35269 ft | 412 kts | 231° |
| 2026-05-05 09:12 | 48.89891 | 18.26331 | 35694 ft | 410 kts | 232° |
| 2026-05-05 09:13 | 48.88089 | 18.22964 | 35879 ft | 412 kts | 232° |
| 2026-05-05 09:13 | 48.84479 | 18.16222 | 35920 ft | 410 kts | 232° |
| 2026-05-05 09:14 | 48.80876 | 18.09515 | 35912 ft | 411 kts | 232° |
| 2026-05-05 09:14 | 48.77270 | 18.02805 | 35920 ft | 409 kts | 232° |
| 2026-05-05 09:15 | 48.73660 | 17.96111 | 35917 ft | 411 kts | 231° |
| 2026-05-05 09:15 | 48.70025 | 17.89400 | 35924 ft | 412 kts | 231° |
| 2026-05-05 09:16 | 48.66388 | 17.82702 | 35923 ft | 412 kts | 231° |
| 2026-05-05 09:16 | 48.62775 | 17.76051 | 35917 ft | 412 kts | 231° |
| 2026-05-05 09:17 | 48.59131 | 17.69364 | 35907 ft | 412 kts | 231° |
| 2026-05-05 09:17 | 48.55484 | 17.62693 | 35906 ft | 412 kts | 231° |
| 2026-05-05 09:18 | 48.51830 | 17.56021 | 35912 ft | 412 kts | 231° |
| 2026-05-05 09:18 | 48.48171 | 17.49358 | 35903 ft | 413 kts | 231° |
| 2026-05-05 09:19 | 48.44498 | 17.42696 | 35901 ft | 414 kts | 231° |
| 2026-05-05 09:19 | 48.40816 | 17.36023 | 35893 ft | 414 kts | 231° |
| 2026-05-05 09:20 | 48.37128 | 17.29351 | 35898 ft | 415 kts | 231° |
| 2026-05-05 09:20 | 48.33431 | 17.22692 | 35900 ft | 415 kts | 231° |
| 2026-05-05 09:21 | 48.29732 | 17.16036 | 35908 ft | 415 kts | 231° |
| 2026-05-05 09:21 | 48.26025 | 17.09396 | 35931 ft | 415 kts | 231° |
| 2026-05-05 09:22 | 48.22314 | 17.02760 | 35920 ft | 415 kts | 231° |
| 2026-05-05 09:22 | 48.18878 | 16.95829 | 35924 ft | 414 kts | 242° |
| 2026-05-05 09:23 | 48.16633 | 16.87896 | 35914 ft | 414 kts | 248° |
| 2026-05-05 09:23 | 48.14478 | 16.79898 | 35908 ft | 414 kts | 248° |
| 2026-05-05 09:24 | 48.12320 | 16.71957 | 35904 ft | 414 kts | 248° |
| 2026-05-05 09:24 | 48.10150 | 16.63977 | 35907 ft | 414 kts | 248° |
| 2026-05-05 09:25 | 48.07980 | 16.56006 | 35897 ft | 414 kts | 248° |
| 2026-05-05 09:25 | 48.05802 | 16.48038 | 35904 ft | 414 kts | 248° |
| 2026-05-05 09:26 | 48.03625 | 16.40112 | 35885 ft | 414 kts | 248° |
| 2026-05-05 09:26 | 48.01438 | 16.32161 | 35885 ft | 414 kts | 248° |
| 2026-05-05 09:27 | 47.99242 | 16.24208 | 35883 ft | 415 kts | 248° |
| 2026-05-05 09:27 | 47.97032 | 16.16242 | 35880 ft | 415 kts | 248° |
| 2026-05-05 09:28 | 47.94814 | 16.08284 | 35883 ft | 416 kts | 248° |
| 2026-05-05 09:28 | 47.92606 | 16.00376 | 35879 ft | 416 kts | 248° |
| 2026-05-05 09:29 | 47.90384 | 15.92426 | 35885 ft | 415 kts | 247° |
| 2026-05-05 09:29 | 47.88160 | 15.84493 | 35885 ft | 415 kts | 247° |
| 2026-05-05 09:30 | 47.85930 | 15.76582 | 35889 ft | 414 kts | 247° |
| 2026-05-05 09:30 | 47.83696 | 15.68688 | 35893 ft | 413 kts | 247° |
| 2026-05-05 09:31 | 47.81468 | 15.60830 | 35893 ft | 412 kts | 247° |
| 2026-05-05 09:31 | 47.79233 | 15.52979 | 35893 ft | 412 kts | 247° |
| 2026-05-05 09:32 | 47.76993 | 15.45147 | 35897 ft | 412 kts | 247° |
| 2026-05-05 09:32 | 47.74756 | 15.37324 | 35899 ft | 411 kts | 247° |
| 2026-05-05 09:33 | 47.72510 | 15.29513 | 35897 ft | 411 kts | 246° |
| 2026-05-05 09:33 | 47.70253 | 15.21700 | 35886 ft | 412 kts | 246° |
| 2026-05-05 09:34 | 47.67989 | 15.13868 | 35882 ft | 413 kts | 246° |
| 2026-05-05 09:34 | 47.65721 | 15.06045 | 35873 ft | 413 kts | 246° |
| 2026-05-05 09:35 | 47.63831 | 14.99545 | 35892 ft | 413 kts | 246° |
| 2026-05-05 09:35 | 47.60416 | 14.87863 | 35898 ft | 411 kts | 246° |
| 2026-05-05 09:36 | 47.58140 | 14.80098 | 35909 ft | 411 kts | 246° |
| 2026-05-05 09:36 | 47.55864 | 14.72352 | 35916 ft | 410 kts | 246° |
| 2026-05-05 09:37 | 47.53583 | 14.64625 | 35918 ft | 410 kts | 246° |
| 2026-05-05 09:37 | 47.51298 | 14.56903 | 35913 ft | 410 kts | 246° |
| 2026-05-05 09:38 | 47.49004 | 14.49194 | 35905 ft | 409 kts | 246° |
| 2026-05-05 09:38 | 47.46712 | 14.41491 | 35903 ft | 409 kts | 246° |
| 2026-05-05 09:39 | 47.44415 | 14.33809 | 35904 ft | 409 kts | 246° |
| 2026-05-05 09:39 | 47.42117 | 14.26122 | 35904 ft | 409 kts | 246° |
| 2026-05-05 09:40 | 47.39809 | 14.18446 | 35908 ft | 409 kts | 245° |
| 2026-05-05 09:40 | 47.37485 | 14.10772 | 35906 ft | 410 kts | 245° |
| 2026-05-05 09:41 | 47.35176 | 14.03135 | 35904 ft | 410 kts | 245° |
| 2026-05-05 09:41 | 47.32854 | 13.95466 | 35906 ft | 410 kts | 245° |
| 2026-05-05 09:42 | 47.30517 | 13.87804 | 35902 ft | 410 kts | 245° |
| 2026-05-05 09:42 | 47.28182 | 13.80146 | 35918 ft | 410 kts | 245° |
| 2026-05-05 09:43 | 47.25836 | 13.72495 | 35926 ft | 410 kts | 245° |
| 2026-05-05 09:43 | 47.23484 | 13.64845 | 35932 ft | 410 kts | 245° |
| 2026-05-05 09:44 | 47.21132 | 13.57212 | 35928 ft | 410 kts | 245° |
| 2026-05-05 09:44 | 47.18776 | 13.49590 | 35919 ft | 410 kts | 245° |
| 2026-05-05 09:45 | 47.16416 | 13.41966 | 35936 ft | 410 kts | 245° |
| 2026-05-05 09:45 | 47.14058 | 13.34397 | 35935 ft | 410 kts | 245° |
| 2026-05-05 09:46 | 47.11686 | 13.26790 | 35936 ft | 409 kts | 245° |
| 2026-05-05 09:46 | 47.09312 | 13.19191 | 35948 ft | 410 kts | 244° |
| 2026-05-05 09:47 | 47.06926 | 13.11598 | 35949 ft | 410 kts | 244° |
| 2026-05-05 09:47 | 47.04535 | 13.04006 | 35957 ft | 410 kts | 244° |
| 2026-05-05 09:48 | 47.02145 | 12.96423 | 35955 ft | 410 kts | 244° |
| 2026-05-05 09:48 | 46.99754 | 12.88877 | 35959 ft | 410 kts | 244° |
| 2026-05-05 09:49 | 46.97347 | 12.81317 | 35975 ft | 409 kts | 244° |
| 2026-05-05 09:49 | 46.94943 | 12.73769 | 35986 ft | 409 kts | 244° |
| 2026-05-05 09:50 | 46.92533 | 12.66216 | 35994 ft | 409 kts | 244° |
| 2026-05-05 09:50 | 46.90118 | 12.58683 | 36012 ft | 409 kts | 244° |
| 2026-05-05 09:51 | 46.87717 | 12.51225 | 36022 ft | 408 kts | 243° |
| 2026-05-05 09:51 | 46.85295 | 12.43721 | 36258 ft | 410 kts | 243° |
| 2026-05-05 09:52 | 46.84085 | 12.39962 | 36651 ft | 409 kts | 243° |
| 2026-05-05 09:52 | 46.82873 | 12.36205 | 36984 ft | 408 kts | 243° |
| 2026-05-05 09:52 | 46.80448 | 12.28723 | 37070 ft | 407 kts | 243° |
| 2026-05-05 09:53 | 46.78072 | 12.21222 | 37056 ft | 407 kts | 244° |
| 2026-05-05 09:53 | 46.76918 | 12.17449 | 36954 ft | 408 kts | 245° |
| 2026-05-05 09:53 | 46.75766 | 12.13673 | 36974 ft | 408 kts | 244° |
| 2026-05-05 09:54 | 46.73430 | 12.06078 | 36971 ft | 408 kts | 244° |
| 2026-05-05 09:54 | 46.71088 | 11.98566 | 36972 ft | 407 kts | 244° |
| 2026-05-05 09:55 | 46.68732 | 11.91054 | 36971 ft | 408 kts | 244° |
| 2026-05-05 09:55 | 46.66387 | 11.83581 | 36426 ft | 411 kts | 244° |
| 2026-05-05 09:56 | 46.65181 | 11.79752 | 35825 ft | 404 kts | 244° |
| 2026-05-05 09:56 | 46.64055 | 11.76169 | 35633 ft | 386 kts | 244° |
| 2026-05-05 09:56 | 46.62947 | 11.72643 | 35450 ft | 377 kts | 244° |
| 2026-05-05 09:56 | 46.61871 | 11.69218 | 35329 ft | 367 kts | 244° |
| 2026-05-05 09:57 | 46.60815 | 11.65872 | 34885 ft | 366 kts | 244° |
| 2026-05-05 09:57 | 46.59726 | 11.62440 | 33920 ft | 381 kts | 243° |
| 2026-05-05 09:57 | 46.58594 | 11.58884 | 32774 ft | 394 kts | 243° |
| 2026-05-05 09:57 | 46.57425 | 11.55216 | 31745 ft | 405 kts | 243° |
| 2026-05-05 09:58 | 46.56239 | 11.51489 | 31026 ft | 407 kts | 243° |
| 2026-05-05 09:58 | 46.55053 | 11.47754 | 30395 ft | 407 kts | 244° |
| 2026-05-05 09:58 | 46.53871 | 11.44039 | 29977 ft | 401 kts | 243° |
| 2026-05-05 09:58 | 46.52711 | 11.40402 | 29672 ft | 392 kts | 243° |
| 2026-05-05 09:59 | 46.51575 | 11.36847 | 29371 ft | 384 kts | 243° |
| 2026-05-05 09:59 | 46.50458 | 11.33351 | 29096 ft | 379 kts | 243° |
| 2026-05-05 09:59 | 46.49356 | 11.29898 | 28801 ft | 376 kts | 242° |
| 2026-05-05 09:59 | 46.48244 | 11.26425 | 28515 ft | 389 kts | 242° |
| 2026-05-05 10:00 | 46.47065 | 11.22771 | 28183 ft | 410 kts | 242° |
| 2026-05-05 10:00 | 46.45844 | 11.18989 | 27869 ft | 416 kts | 243° |
| 2026-05-05 10:00 | 46.44614 | 11.15185 | 27560 ft | 417 kts | 243° |
| 2026-05-05 10:00 | 46.43388 | 11.11388 | 27244 ft | 415 kts | 243° |
| 2026-05-05 10:01 | 46.42148 | 11.07616 | 26936 ft | 412 kts | 239° |
| 2026-05-05 10:01 | 46.40550 | 11.04210 | 26701 ft | 407 kts | 229° |
| 2026-05-05 10:01 | 46.38777 | 11.01030 | 26398 ft | 406 kts | 229° |
| 2026-05-05 10:01 | 46.37001 | 10.97858 | 26079 ft | 404 kts | 229° |
| 2026-05-05 10:02 | 46.35240 | 10.94714 | 25769 ft | 402 kts | 229° |
| 2026-05-05 10:02 | 46.33482 | 10.91582 | 25460 ft | 400 kts | 229° |
| 2026-05-05 10:02 | 46.31733 | 10.88466 | 25152 ft | 398 kts | 229° |
| 2026-05-05 10:02 | 46.30150 | 10.85185 | 24854 ft | 398 kts | 239° |
| 2026-05-05 10:03 | 46.28901 | 10.81618 | 24536 ft | 397 kts | 241° |
| 2026-05-05 10:03 | 46.27675 | 10.78069 | 24226 ft | 395 kts | 240° |
| 2026-05-05 10:03 | 46.26411 | 10.74431 | 23928 ft | 417 kts | 241° |
| 2026-05-05 10:03 | 46.25087 | 10.70635 | 23582 ft | 426 kts | 241° |
| 2026-05-05 10:04 | 46.23748 | 10.66797 | 23229 ft | 436 kts | 241° |
| 2026-05-05 10:04 | 46.22361 | 10.62832 | 22885 ft | 446 kts | 241° |
| 2026-05-05 10:04 | 46.20955 | 10.58821 | 22547 ft | 447 kts | 241° |
| 2026-05-05 10:04 | 46.19554 | 10.54822 | 22198 ft | 446 kts | 241° |
| 2026-05-05 10:05 | 46.18162 | 10.50842 | 21858 ft | 443 kts | 241° |
| 2026-05-05 10:05 | 46.16773 | 10.46885 | 21515 ft | 441 kts | 241° |
| 2026-05-05 10:05 | 46.15390 | 10.42954 | 21189 ft | 438 kts | 241° |
| 2026-05-05 10:05 | 46.14012 | 10.39047 | 20866 ft | 436 kts | 241° |
| 2026-05-05 10:06 | 46.12640 | 10.35159 | 20514 ft | 434 kts | 241° |
| 2026-05-05 10:06 | 46.11294 | 10.31346 | 20192 ft | 431 kts | 241° |
| 2026-05-05 10:06 | 46.09935 | 10.27505 | 19851 ft | 429 kts | 241° |
| 2026-05-05 10:06 | 46.08583 | 10.23692 | 19537 ft | 426 kts | 241° |
| 2026-05-05 10:07 | 46.07238 | 10.19907 | 19194 ft | 424 kts | 241° |
| 2026-05-05 10:07 | 46.05895 | 10.16137 | 18885 ft | 422 kts | 241° |
| 2026-05-05 10:07 | 46.04561 | 10.12392 | 18566 ft | 420 kts | 241° |
| 2026-05-05 10:07 | 46.03248 | 10.08656 | 18232 ft | 417 kts | 242° |
| 2026-05-05 10:08 | 46.01977 | 10.04913 | 17895 ft | 415 kts | 242° |
| 2026-05-05 10:08 | 46.00732 | 10.01173 | 17589 ft | 413 kts | 243° |
| 2026-05-05 10:08 | 45.99501 | 9.97447 | 17265 ft | 412 kts | 243° |
| 2026-05-05 10:08 | 45.98286 | 9.93779 | 16981 ft | 398 kts | 243° |
| 2026-05-05 10:09 | 45.97116 | 9.90272 | 16864 ft | 380 kts | 243° |
| 2026-05-05 10:09 | 45.95992 | 9.86926 | 16716 ft | 364 kts | 242° |
| 2026-05-05 10:09 | 45.94916 | 9.83735 | 16584 ft | 343 kts | 242° |
| 2026-05-05 10:09 | 45.93895 | 9.80720 | 15986 ft | 329 kts | 242° |
| 2026-05-05 10:10 | 45.92902 | 9.77804 | 15331 ft | 321 kts | 242° |
| 2026-05-05 10:10 | 45.91929 | 9.74953 | 15019 ft | 315 kts | 242° |
| 2026-05-05 10:10 | 45.90974 | 9.72158 | 14772 ft | 310 kts | 242° |
| 2026-05-05 10:10 | 45.90034 | 9.69410 | 14525 ft | 304 kts | 242° |
| 2026-05-05 10:11 | 45.89112 | 9.66710 | 14289 ft | 298 kts | 242° |
| 2026-05-05 10:11 | 45.88208 | 9.64059 | 14051 ft | 294 kts | 242° |
| 2026-05-05 10:11 | 45.87309 | 9.61436 | 13811 ft | 292 kts | 242° |
| 2026-05-05 10:11 | 45.86414 | 9.58824 | 13552 ft | 291 kts | 242° |
| 2026-05-05 10:12 | 45.85527 | 9.56226 | 13284 ft | 289 kts | 242° |
| 2026-05-05 10:12 | 45.84622 | 9.53655 | 13023 ft | 288 kts | 240° |
| 2026-05-05 10:12 | 45.83669 | 9.51134 | 12756 ft | 287 kts | 239° |
| 2026-05-05 10:12 | 45.82697 | 9.48636 | 12496 ft | 286 kts | 239° |
| 2026-05-05 10:13 | 45.81722 | 9.46151 | 12257 ft | 286 kts | 238° |
| 2026-05-05 10:13 | 45.80747 | 9.43665 | 12010 ft | 286 kts | 238° |
| 2026-05-05 10:13 | 45.79778 | 9.41184 | 11750 ft | 285 kts | 238° |
| 2026-05-05 10:13 | 45.78812 | 9.38701 | 11496 ft | 286 kts | 238° |
| 2026-05-05 10:14 | 45.77850 | 9.36219 | 11253 ft | 284 kts | 239° |
| 2026-05-05 10:14 | 45.76898 | 9.33752 | 11004 ft | 282 kts | 239° |
| 2026-05-05 10:14 | 45.75950 | 9.31298 | 10754 ft | 281 kts | 239° |
| 2026-05-05 10:14 | 45.75002 | 9.28852 | 10520 ft | 280 kts | 238° |
| 2026-05-05 10:15 | 45.74057 | 9.26418 | 10275 ft | 279 kts | 238° |
| 2026-05-05 10:15 | 45.73117 | 9.23993 | 10033 ft | 278 kts | 238° |
| 2026-05-05 10:15 | 45.72181 | 9.21587 | 9874 ft | 274 kts | 238° |
| 2026-05-05 10:15 | 45.71260 | 9.19217 | 9739 ft | 273 kts | 238° |
| 2026-05-05 10:16 | 45.70335 | 9.16843 | 9607 ft | 273 kts | 238° |
| 2026-05-05 10:16 | 45.69410 | 9.14470 | 9473 ft | 273 kts | 238° |
| 2026-05-05 10:16 | 45.68482 | 9.12095 | 9337 ft | 274 kts | 238° |
| 2026-05-05 10:16 | 45.67550 | 9.09714 | 9206 ft | 274 kts | 238° |
| 2026-05-05 10:17 | 45.66619 | 9.07337 | 9098 ft | 275 kts | 238° |
| 2026-05-05 10:17 | 45.65611 | 9.05026 | 8958 ft | 273 kts | 228° |
| 2026-05-05 10:17 | 45.64228 | 9.03208 | 8832 ft | 270 kts | 211° |
| 2026-05-05 10:17 | 45.62539 | 9.02070 | 8729 ft | 269 kts | 195° |
| 2026-05-05 10:18 | 45.60693 | 9.01646 | 8568 ft | 269 kts | 185° |
| 2026-05-05 10:18 | 45.58850 | 9.01414 | 8370 ft | 270 kts | 185° |
| 2026-05-05 10:18 | 45.56982 | 9.01173 | 8165 ft | 270 kts | 184° |
| 2026-05-05 10:18 | 45.55114 | 9.00928 | 7935 ft | 269 kts | 184° |
| 2026-05-05 10:19 | 45.53246 | 9.00682 | 7716 ft | 269 kts | 184° |
| 2026-05-05 10:19 | 45.51384 | 9.00440 | 7492 ft | 269 kts | 183° |
| 2026-05-05 10:19 | 45.49525 | 9.00200 | 7269 ft | 268 kts | 183° |
| 2026-05-05 10:19 | 45.47667 | 8.99961 | 7051 ft | 268 kts | 182° |
| 2026-05-05 10:20 | 45.45815 | 8.99721 | 6821 ft | 267 kts | 182° |
| 2026-05-05 10:20 | 45.43961 | 8.99477 | 6601 ft | 267 kts | 182° |
| 2026-05-05 10:20 | 45.42113 | 8.99237 | 6380 ft | 266 kts | 181° |
| 2026-05-05 10:20 | 45.40268 | 8.98998 | 6141 ft | 266 kts | 184° |
| 2026-05-05 10:21 | 45.38435 | 8.98761 | 5916 ft | 264 kts | 183° |
| 2026-05-05 10:21 | 45.36631 | 8.98314 | 5683 ft | 265 kts | 198° |
| 2026-05-05 10:21 | 45.35061 | 8.96929 | 5489 ft | 270 kts | 222° |
| 2026-05-05 10:21 | 45.34021 | 8.94721 | 5275 ft | 273 kts | 247° |
| 2026-05-05 10:22 | 45.33725 | 8.92076 | 5116 ft | 272 kts | 273° |
| 2026-05-05 10:22 | 45.33964 | 8.90343 | 5032 ft | 270 kts | 289° |
| 2026-05-05 10:22 | 45.34665 | 8.87886 | 4897 ft | 267 kts | 292° |
| 2026-05-05 10:22 | 45.35371 | 8.85463 | 4751 ft | 263 kts | 292° |
| 2026-05-05 10:23 | 45.36145 | 8.83147 | 4625 ft | 256 kts | 304° |
| 2026-05-05 10:23 | 45.37314 | 8.81313 | 4485 ft | 246 kts | 323° |
| 2026-05-05 10:23 | 45.38769 | 8.80130 | 4312 ft | 238 kts | 342° |
| 2026-05-05 10:23 | 45.40353 | 8.79582 | 4111 ft | 232 kts | 351° |
| 2026-05-05 10:24 | 45.41920 | 8.79154 | 3932 ft | 228 kts | 351° |
| 2026-05-05 10:24 | 45.43473 | 8.78729 | 3723 ft | 227 kts | 351° |
| 2026-05-05 10:24 | 45.45033 | 8.78301 | 3556 ft | 229 kts | 351° |
| 2026-05-05 10:24 | 45.46587 | 8.77875 | 3385 ft | 225 kts | 351° |
| 2026-05-05 10:25 | 45.48089 | 8.77462 | 3219 ft | 215 kts | 351° |
| 2026-05-05 10:25 | 45.49514 | 8.77070 | 3121 ft | 203 kts | 351° |
| 2026-05-05 10:25 | 45.50869 | 8.76697 | 2916 ft | 194 kts | 351° |
| 2026-05-05 10:25 | 45.52177 | 8.76338 | 2654 ft | 188 kts | 351° |
| 2026-05-05 10:26 | 45.53401 | 8.76000 | 2420 ft | 170 kts | 351° |
| 2026-05-05 10:26 | 45.54484 | 8.75702 | 2199 ft | 148 kts | 351° |
| 2026-05-05 10:26 | 45.55456 | 8.75434 | 2003 ft | 139 kts | 351° |
| 2026-05-05 10:26 | 45.56390 | 8.75178 | 1824 ft | 134 kts | 351° |
| 2026-05-05 10:27 | 45.57295 | 8.74929 | 1628 ft | 131 kts | 351° |
| 2026-05-05 10:27 | 45.58202 | 8.74680 | 1443 ft | 133 kts | 349° |
| 2026-05-05 10:27 | 45.59112 | 8.74429 | 1254 ft | 133 kts | 349° |
| 2026-05-05 10:27 | 45.60021 | 8.74176 | 1076 ft | 132 kts | 348° |
| 2026-05-05 10:28 | 45.60921 | 8.73930 | 949 ft | 131 kts | 348° |
| 2026-05-05 10:28 | 45.61816 | 8.73668 | 801 ft | 131 kts | 355° |
| 2026-05-05 10:28 | 45.62612 | 8.73468 | 748 ft | 83 kts | 349° |
| 2026-05-05 10:28 | 45.62934 | 8.73376 | 744 ft | 32 kts | 347° |
| 2026-05-05 10:29 | 45.63125 | 8.73277 | 744 ft | 27 kts | 324° |
| 2026-05-05 10:29 | 45.63241 | 8.73111 | 746 ft | 21 kts | 307° |
| 2026-05-05 10:29 | 45.63317 | 8.72952 | 749 ft | 19 kts | 304° |
| 2026-05-05 10:29 | 45.63382 | 8.72813 | 749 ft | 14 kts | 304° |
| 2026-05-05 10:30 | 45.63387 | 8.72685 | 749 ft | 12 kts | 249° |
| 2026-05-05 10:30 | 45.63325 | 8.72610 | 748 ft | 11 kts | 215° |
| 2026-05-05 10:30 | 45.63267 | 8.72554 | 752 ft | 10 kts | 213° |
| 2026-05-05 10:30 | 45.63215 | 8.72505 | 748 ft | 8 kts | 215° |
| 2026-05-05 10:31 | 45.63171 | 8.72462 | 747 ft | 7 kts | 212° |
| 2026-05-05 10:31 | 45.63132 | 8.72427 | 751 ft | 6 kts | 212° |
| 2026-05-05 10:31 | 45.63100 | 8.72394 | 750 ft | 5 kts | 218° |
| 2026-05-05 10:31 | 45.63071 | 8.72357 | 750 ft | 6 kts | 227° |
| 2026-05-05 10:32 | 45.63046 | 8.72307 | 749 ft | 7 kts | 240° |
| 2026-05-05 10:32 | 45.63025 | 8.72164 | 750 ft | 15 kts | 269° |
| 2026-05-05 10:32 | 45.63003 | 8.72034 | 752 ft | 12 kts | 258° |
| 2026-05-05 10:32 | 45.62987 | 8.71923 | 751 ft | 11 kts | 258° |
| 2026-05-05 10:33 | 45.62974 | 8.71829 | 752 ft | 9 kts | 260° |
| 2026-05-05 10:33 | 45.62962 | 8.71752 | 749 ft | 6 kts | 237° |
| 2026-05-05 10:33 | 45.62938 | 8.71751 | 752 ft | 3 kts | 171° |
| 2026-05-05 10:33 | 45.62922 | 8.71755 | 750 ft | 2 kts | 171° |
| 2026-05-05 10:34 | 45.62898 | 8.71761 | 749 ft | 5 kts | 168° |
| 2026-05-05 10:34 | 45.62867 | 8.71770 | 751 ft | 5 kts | 168° |
| 2026-05-05 10:34 | 45.62792 | 8.71791 | 751 ft | 13 kts | 169° |
| 2026-05-05 10:34 | 45.62699 | 8.71816 | 749 ft | 13 kts | 169° |
| 2026-05-05 10:35 | 45.62643 | 8.71781 | 753 ft | 8 kts | 252° |
| 2026-05-05 10:35 | 45.62632 | 8.71691 | 753 ft | 10 kts | 260° |
| 2026-05-05 10:35 | 45.62619 | 8.71593 | 749 ft | 8 kts | 253° |
| 2026-05-05 10:35 | 45.62598 | 8.71589 | 753 ft | 4 kts | 168° |
| 2026-05-05 10:36 | 45.62565 | 8.71599 | 750 ft | 6 kts | 169° |
| 2026-05-05 10:36 | 45.62543 | 8.71605 | 753 ft | 1 kts | 169° |
| 2026-05-05 10:36 | 45.62538 | 8.71606 | 753 ft | 0 kts | 170° |